Midnight Sun — WDG4581 — position and weather

sailwx.info

Track history (hours):
 
Tides and Currents Weather Stations Pressure Air Temp Water Temp Dewpoint Dewpoint Depression Visibility Wind Speed Wind Dir Waves Ship Positions

Midnight Sun

Owner: Findley, Bob, Seattle, WA. More information available from US FCC via Universal Licensing System and Coast Guard Vessel Documentation Center.

Last reported at 2015-Mar-29 01:22 UTC. Time now 2015-Mar-30 02:25 UTC.
Position N 47°38' W 122°24'.

Length 16 m.

Type: Pleasure craft. MMSI: 367538070.

Date/timePositionNaut miles runAvg speedWind from/ knotsBaromVisibWave heightAir tempDewpointWater temp
2015-Mar-29 01:22N 47°38' W 122°24'0 0.0
2015-Mar-28 23:07N 47°38' W 122°24'0 0.1
2015-Mar-28 21:52N 47°38' W 122°23'1 3.4
2015-Mar-28 21:29N 47°37' W 122°25'5 5.4
2015-Mar-28 20:33N 47°33' W 122°29'0 0.0
2015-Mar-28 18:21N 47°33' W 122°29'0 0.0
2015-Mar-28 17:33N 47°33' W 122°29'0 0.0
2015-Mar-28 16:33N 47°33' W 122°29'0 0.0
2015-Mar-28 01:32N 47°33' W 122°29'5 5.3
2015-Mar-28 00:31N 47°37' W 122°25'1 5.4
2015-Mar-28 00:22N 47°38' W 122°24'0 0.2
2015-Mar-27 23:12N 47°38' W 122°24'0 0.0
2015-Mar-27 22:21N 47°38' W 122°24'0 0.0
2015-Mar-27 22:18N 47°38' W 122°24'  
2015-Mar-24 18:59N 47°38' W 122°24'  
2015-Mar-19 02:08N 47°38' W 122°24'  
Track history (hours):
 
Tides and Currents Weather Stations Pressure Air Temp Water Temp Dewpoint Dewpoint Depression Visibility Wind Speed Wind Dir Waves Ship Positions

Midnight Sun

Owner: Findley, Bob, Seattle, WA. More information available from US FCC via Universal Licensing System and Coast Guard Vessel Documentation Center.

Last reported at 2015-Mar-29 01:22 UTC. Time now 2015-Mar-30 02:25 UTC.
Position N 47°38' W 122°24'.

Length 16 m.

Type: Pleasure craft. MMSI: 367538070.

Date/timePositionNaut miles runAvg speedWind from/ knotsBaromVisibWave heightAir tempDewpointWater temp
2015-Mar-29 01:22N 47°38' W 122°24'0 0.0
2015-Mar-28 23:07N 47°38' W 122°24'0 0.1
2015-Mar-28 21:52N 47°38' W 122°23'1 3.4
2015-Mar-28 21:29N 47°37' W 122°25'5 5.4
2015-Mar-28 20:33N 47°33' W 122°29'0 0.0
2015-Mar-28 18:21N 47°33' W 122°29'0 0.0
2015-Mar-28 17:33N 47°33' W 122°29'0 0.0
2015-Mar-28 16:33N 47°33' W 122°29'0 0.0
2015-Mar-28 01:32N 47°33' W 122°29'5 5.3
2015-Mar-28 00:31N 47°37' W 122°25'1 5.4
2015-Mar-28 00:22N 47°38' W 122°24'0 0.2
2015-Mar-27 23:12N 47°38' W 122°24'0 0.0
2015-Mar-27 22:21N 47°38' W 122°24'0 0.0
2015-Mar-27 22:18N 47°38' W 122°24'  
2015-Mar-24 18:59N 47°38' W 122°24'  
2015-Mar-19 02:08N 47°38' W 122°24'  

Dump ship's entire track history